Time;durP1;ratioP1;P1;durP2;ratioP2;P2;SDS_P1;SDS_P2;PMS_P1;PMS_P2;Temp;Humidity;BMP_temperature;BMP_pressure;BME280_temperature;BME280_humidity;BME280_pressure;Samples;Min_cycle;Max_cycle;Signal;HPM_P1;HPM_P2
2022/09/20 00:01:09;;;;;;;;;;;;;;;16.30;53.44;99720.47;5058005;28;19920;-68
2022/09/20 00:03:38;;;;;;;;;;;;;;;16.23;53.96;99722.28;5058039;28;19921;-68
2022/09/20 00:06:05;;;;;;;;;;;;;;;16.25;54.00;99721.06;5056229;28;19912;-69
2022/09/20 00:08:30;;;;;;;;;;;;;;;16.16;53.99;99719.59;5058242;28;19931;-68
2022/09/20 00:10:56;;;;;;;;;;;;;;;16.11;54.68;99714.03;5040493;28;19971;-69
2022/09/20 00:13:22;;;;;;;;;;;;;;;16.38;53.93;99716.81;5059100;28;19955;-68
2022/09/20 00:15:47;;;;;;;;;;;;;;;16.23;54.32;99724.97;5057774;28;19917;-69
2022/09/20 00:18:12;;;;;;;;;;;;;;;16.12;54.31;99712.19;5058851;28;19916;-68
2022/09/20 00:20:48;;;;;;;;;;;;;;;16.02;54.87;99706.38;5039148;28;19928;-69
2022/09/20 00:23:13;;;;;;;;;;;;;;;15.97;54.57;99701.63;5058572;28;20237;-69
2022/09/20 00:25:39;;;;;;;;;;;;;;;15.98;55.13;99702.44;5063077;28;19924;-69
2022/09/20 00:28:04;;;;;;;;;;;;;;;16.01;54.66;99700.22;5063149;28;19920;-69
2022/09/20 00:30:31;;;;;;;;;;;;;;;15.87;55.06;99698.50;5058159;28;20356;-68
2022/09/20 00:32:56;;;;;;;;;;;;;;;15.96;55.19;99700.81;5057800;28;19917;-68
2022/09/20 00:35:22;;;;;;;;;;;;;;;15.80;55.93;99689.63;5058179;28;20261;-69
2022/09/20 00:37:47;;;;;;;;;;;;;;;15.82;55.63;99696.41;5057076;28;19921;-68
2022/09/20 00:40:14;;;;;;;;;;;;;;;15.77;55.79;99698.03;5062724;28;19913;-69
2022/09/20 00:42:39;;;;;;;;;;;;;;;15.79;55.26;99701.31;5062778;28;20194;-68
2022/09/20 00:45:06;;;;;;;;;;;;;;;15.83;55.48;99699.91;5056816;28;19924;-68
2022/09/20 00:47:31;;;;;;;;;;;;;;;15.86;55.03;99715.53;5058320;28;19923;-68
2022/09/20 00:50:12;;;;;;;;;;;;;;;15.73;55.55;99718.94;5058066;28;20103;-68
2022/09/20 00:52:37;;;;;;;;;;;;;;;16.02;54.98;99715.22;5056516;28;20156;-68
2022/09/20 00:55:06;;;;;;;;;;;;;;;16.10;54.62;99709.69;5057479;28;19912;-68
2022/09/20 00:57:34;;;;;;;;;;;;;;;15.95;55.03;99701.81;5058303;28;20353;-68
2022/09/20 01:00:01;;;;;;;;;;;;;;;15.85;55.17;99703.22;5057103;28;19977;-68
2022/09/20 01:02:28;;;;;;;;;;;;;;;15.75;55.45;99698.22;5055528;28;20472;-68
2022/09/20 01:04:54;;;;;;;;;;;;;;;15.65;56.18;99695.09;5061727;28;19923;-68
2022/09/20 01:07:23;;;;;;;;;;;;;;;15.48;56.64;99699.84;5062494;28;19943;-68
2022/09/20 01:09:49;;;;;;;;;;;;;;;15.61;56.53;99686.66;5056562;28;19912;-68
2022/09/20 01:12:17;;;;;;;;;;;;;;;15.66;56.60;99686.06;5054557;28;20126;-68
2022/09/20 01:14:43;;;;;;;;;;;;;;;15.62;56.29;99676.78;5056433;28;19976;-68
2022/09/20 01:17:09;;;;;;;;;;;;;;;15.64;56.19;99678.25;5057499;28;20197;-68
2022/09/20 01:19:43;;;;;;;;;;;;;;;15.64;56.77;99680.09;5056924;28;19919;-68
2022/09/20 01:22:20;;;;;;;;;;;;;;;15.55;57.00;99675.88;5057086;28;20019;-68
2022/09/20 01:25:03;;;;;;;;;;;;;;;15.43;57.72;99675.56;5056003;28;19916;-68
2022/09/20 01:27:42;;;;;;;;;;;;;;;15.50;57.59;99663.09;5042274;28;19948;-68
2022/09/20 01:30:11;;;;;;;;;;;;;;;15.41;58.25;99668.78;5043611;28;19928;-68
2022/09/20 01:32:48;;;;;;;;;;;;;;;15.33;58.45;99672.44;5056959;28;19976;-68
2022/09/20 01:35:15;;;;;;;;;;;;;;;15.47;58.20;99676.00;5058179;28;20185;-68
2022/09/20 01:37:53;;;;;;;;;;;;;;;15.32;58.78;99670.78;5062221;28;19921;-68
2022/09/20 01:40:26;;;;;;;;;;;;;;;15.17;59.05;99670.88;5055807;28;19931;-68
2022/09/20 01:43:18;;;;;;;;;;;;;;;15.22;58.87;99681.78;5055877;28;19975;-68
2022/09/20 01:45:45;;;;;;;;;;;;;;;15.18;59.58;99680.53;5048169;28;21345;-68
2022/09/20 01:48:19;;;;;;;;;;;;;;;15.15;59.36;99672.09;5056903;28;19912;-68
2022/09/20 01:50:51;;;;;;;;;;;;;;;15.11;59.37;99682.31;5054281;28;19958;-68
2022/09/20 01:53:34;;;;;;;;;;;;;;;15.13;59.14;99682.94;5057658;28;19976;-68
2022/09/20 01:56:21;;;;;;;;;;;;;;;15.14;58.86;99681.09;5057490;28;20222;-68
2022/09/20 01:59:02;;;;;;;;;;;;;;;15.14;58.92;99691.78;5057727;28;19924;-68
2022/09/20 02:01:44;;;;;;;;;;;;;;;15.08;59.39;99682.69;5036561;28;19924;-68
2022/09/20 02:04:27;;;;;;;;;;;;;;;15.27;58.64;99687.38;5053535;28;19920;-68
2022/09/20 02:07:11;;;;;;;;;;;;;;;15.21;58.58;99688.16;5053770;28;19983;-68
2022/09/20 02:09:43;;;;;;;;;;;;;;;15.20;58.51;99689.16;5035668;28;19924;-68
2022/09/20 02:12:09;;;;;;;;;;;;;;;14.95;59.11;99695.91;5055702;28;19932;-68
2022/09/20 02:14:52;;;;;;;;;;;;;;;15.03;59.09;99706.47;5057855;28;19912;-68
2022/09/20 02:17:32;;;;;;;;;;;;;;;14.92;59.75;99702.47;5061209;28;19959;-68
2022/09/20 02:20:05;;;;;;;;;;;;;;;14.84;59.84;99707.91;5057914;28;19932;-69
2022/09/20 02:22:30;;;;;;;;;;;;;;;14.76;60.31;99700.06;5056818;28;20191;-68
2022/09/20 02:25:34;;;;;;;;;;;;;;;14.62;61.24;99708.94;5058192;28;20015;-68
2022/09/20 02:28:18;;;;;;;;;;;;;;;14.68;60.83;99694.84;5016112;28;19917;-68
2022/09/20 02:31:02;;;;;;;;;;;;;;;14.70;60.20;99687.47;5016244;28;20453;-68
2022/09/20 02:33:37;;;;;;;;;;;;;;;14.76;59.92;99693.91;5045432;28;19925;-68
2022/09/20 02:36:03;;;;;;;;;;;;;;;14.64;60.40;99701.56;5056204;28;20154;-68
2022/09/20 02:38:46;;;;;;;;;;;;;;;14.79;59.60;99706.84;5057271;28;19916;-68
2022/09/20 02:41:30;;;;;;;;;;;;;;;14.71;59.38;99698.97;5053897;28;19917;-69
2022/09/20 02:44:11;;;;;;;;;;;;;;;14.74;59.12;99701.25;5053748;28;19916;-69
2022/09/20 02:46:44;;;;;;;;;;;;;;;14.68;59.09;99710.84;5052666;28;19924;-68
2022/09/20 02:49:36;;;;;;;;;;;;;;;14.69;58.66;99709.81;5056048;28;19920;-68
2022/09/20 02:52:16;;;;;;;;;;;;;;;14.66;58.58;99720.84;5054782;28;20118;-68
2022/09/20 02:54:50;;;;;;;;;;;;;;;14.61;58.83;99732.09;5054687;28;20217;-68
2022/09/20 02:57:24;;;;;;;;;;;;;;;14.66;59.53;99732.34;5056227;28;20199;-68
2022/09/20 02:59:53;;;;;;;;;;;;;;;14.46;59.66;99720.59;5056042;28;19987;-68
2022/09/20 03:02:36;;;;;;;;;;;;;;;14.53;59.31;99732.16;5056816;28;19980;-68
2022/09/20 03:07:35;;;;;;;;;;;;;;;14.43;58.27;99731.63;5116000;28;20186;-67
2022/09/20 03:10:19;;;;;;;;;;;;;;;14.42;58.44;99731.78;5124030;28;19958;-68
2022/09/20 03:12:47;;;;;;;;;;;;;;;14.26;58.88;99731.00;5102525;28;19973;-68
2022/09/20 03:15:31;;;;;;;;;;;;;;;14.34;59.01;99741.53;5103276;28;19951;-68
2022/09/20 03:18:07;;;;;;;;;;;;;;;14.25;59.48;99748.00;5106054;28;20192;-68
2022/09/20 03:20:39;;;;;;;;;;;;;;;14.38;59.07;99748.16;5106079;28;19916;-67
2022/09/20 03:23:23;;;;;;;;;;;;;;;14.29;59.71;99751.09;5106033;28;19923;-68
2022/09/20 03:26:00;;;;;;;;;;;;;;;14.25;59.53;99753.31;5106073;28;19916;-67
2022/09/20 03:28:25;;;;;;;;;;;;;;;14.03;60.34;99751.59;5105833;28;19982;-68
2022/09/20 03:31:02;;;;;;;;;;;;;;;14.00;60.58;99752.78;5105890;28;19957;-68
2022/09/20 03:33:33;;;;;;;;;;;;;;;14.11;60.21;99756.81;5105738;28;19946;-67
2022/09/20 03:36:15;;;;;;;;;;;;;;;14.18;60.03;99759.56;5105308;28;20332;-68
2022/09/20 03:38:57;;;;;;;;;;;;;;;14.16;59.83;99765.06;5105719;28;19942;-67
2022/09/20 03:41:38;;;;;;;;;;;;;;;13.99;60.23;99775.09;5105885;28;19924;-68
2022/09/20 03:44:03;;;;;;;;;;;;;;;14.20;59.35;99771.69;5092769;28;19915;-68
2022/09/20 03:46:34;;;;;;;;;;;;;;;14.20;59.74;99774.34;5105552;28;19916;-67
2022/09/20 03:49:03;;;;;;;;;;;;;;;14.10;59.56;99775.63;5105562;28;19915;-68
2022/09/20 03:51:34;;;;;;;;;;;;;;;13.97;59.51;99777.09;5105462;28;19916;-68
2022/09/20 03:54:02;;;;;;;;;;;;;;;13.92;59.72;99770.69;5105823;28;19914;-67
2022/09/20 03:56:36;;;;;;;;;;;;;;;13.90;59.75;99780.69;5105446;28;20263;-67
2022/09/20 03:59:07;;;;;;;;;;;;;;;13.93;59.77;99786.47;5083879;28;20135;-67
2022/09/20 04:01:59;;;;;;;;;;;;;;;13.74;60.53;99785.16;5093734;28;20004;-67
2022/09/20 04:04:30;;;;;;;;;;;;;;;13.79;60.35;99789.13;5066317;28;20201;-68
2022/09/20 04:07:15;;;;;;;;;;;;;;;13.78;60.04;99796.28;5104201;28;19916;-68
2022/09/20 04:09:50;;;;;;;;;;;;;;;13.72;60.70;99792.50;5118727;28;19914;-67
2022/09/20 04:12:28;;;;;;;;;;;;;;;13.72;60.59;99786.34;5104820;28;19920;-67
2022/09/20 04:15:09;;;;;;;;;;;;;;;13.81;60.38;99789.75;5105359;28;19916;-67
2022/09/20 04:17:40;;;;;;;;;;;;;;;13.67;60.81;99792.22;5105070;28;19912;-67
2022/09/20 04:20:20;;;;;;;;;;;;;;;13.77;60.36;99793.78;5104824;28;20102;-68
2022/09/20 04:22:50;;;;;;;;;;;;;;;13.88;60.31;99798.66;5104904;28;19943;-67
2022/09/20 04:25:20;;;;;;;;;;;;;;;14.00;59.77;99800.69;5104776;28;20178;-67
2022/09/20 04:27:55;;;;;;;;;;;;;;;13.98;60.13;99808.03;5104417;28;20242;-68
2022/09/20 04:30:21;;;;;;;;;;;;;;;13.78;60.30;99801.59;5104716;28;19923;-67
2022/09/20 04:33:09;;;;;;;;;;;;;;;13.66;60.97;99808.38;5104566;28;19911;-68
2022/09/20 04:38:37;;;;;;;;;;;;;;;13.81;60.17;99803.91;5104545;28;19919;-67
2022/09/20 04:41:20;;;;;;;;;;;;;;;13.86;59.65;99812.16;5104722;28;19912;-67
2022/09/20 04:43:58;;;;;;;;;;;;;;;13.86;60.01;99814.81;5104381;28;19919;-67
2022/09/20 04:46:26;;;;;;;;;;;;;;;14.10;59.18;99821.72;5104540;28;19912;-67
2022/09/20 04:49:03;;;;;;;;;;;;;;;14.13;58.82;99816.03;5104500;28;19912;-67
2022/09/20 04:51:47;;;;;;;;;;;;;;;14.10;58.70;99808.41;5104617;28;19919;-67
2022/09/20 04:54:21;;;;;;;;;;;;;;;14.21;58.76;99810.63;5104088;28;20201;-68
2022/09/20 04:56:55;;;;;;;;;;;;;;;14.28;58.19;99810.72;5104370;28;19918;-68
2022/09/20 04:59:23;;;;;;;;;;;;;;;14.35;57.61;99811.63;5104287;28;19919;-67
2022/09/20 05:02:02;;;;;;;;;;;;;;;14.38;57.29;99816.59;5101489;28;19957;-68
2022/09/20 05:04:46;;;;;;;;;;;;;;;14.43;57.40;99822.22;5100889;28;19941;-68
2022/09/20 05:07:30;;;;;;;;;;;;;;;14.55;56.82;99830.56;5075873;28;19916;-68
2022/09/20 05:10:14;;;;;;;;;;;;;;;14.69;56.80;99829.75;5080225;28;20205;-67
2022/09/20 05:13:05;;;;;;;;;;;;;;;14.43;57.32;99830.22;5080653;28;19919;-67
2022/09/20 05:15:41;;;;;;;;;;;;;;;14.66;56.76;99827.47;5073550;28;19924;-68
2022/09/20 05:18:25;;;;;;;;;;;;;;;14.87;56.15;99827.50;5081367;28;19912;-68
2022/09/20 05:21:19;;;;;;;;;;;;;;;14.94;55.46;99825.75;5079939;28;19930;-68
2022/09/20 05:23:58;;;;;;;;;;;;;;;14.95;55.89;99838.06;5044641;28;20084;-67
2022/09/20 05:26:32;;;;;;;;;;;;;;;15.36;55.18;99834.78;5080082;28;19993;-68
2022/09/20 05:29:03;;;;;;;;;;;;;;;15.57;54.74;99826.81;5079602;28;19949;-68
2022/09/20 05:31:32;;;;;;;;;;;;;;;15.86;53.85;99822.34;5080528;28;20109;-68
2022/09/20 05:33:58;;;;;;;;;;;;;;;15.96;52.10;99833.50;5081881;28;20061;-68
2022/09/20 05:36:38;;;;;;;;;;;;;;;16.12;51.84;99835.88;5079674;28;19969;-68
2022/09/20 05:39:20;;;;;;;;;;;;;;;15.91;52.58;99835.94;5079884;28;19912;-68
2022/09/20 05:41:55;;;;;;;;;;;;;;;15.85;52.48;99840.19;5081505;28;19916;-68
2022/09/20 05:44:39;;;;;;;;;;;;;;;15.96;52.15;99836.19;5080180;28;19979;-68
2022/09/20 05:47:14;;;;;;;;;;;;;;;15.76;53.06;99840.53;5081212;28;19916;-68
2022/09/20 05:49:58;;;;;;;;;;;;;;;15.86;52.72;99844.53;5081732;28;19946;-68
2022/09/20 05:52:38;;;;;;;;;;;;;;;15.69;52.79;99842.31;5079040;28;19962;-67
2022/09/20 05:55:14;;;;;;;;;;;;;;;15.90;52.45;99852.97;5079400;28;19928;-68
2022/09/20 05:57:40;;;;;;;;;;;;;;;15.91;51.86;99846.63;5079571;28;19996;-68
2022/09/20 06:00:14;;;;;;;;;;;;;;;16.15;50.95;99851.50;5079917;28;20205;-68
2022/09/20 06:02:58;;;;;;;;;;;;;;;16.58;49.96;99846.00;5079956;28;19914;-68
2022/09/20 06:05:24;;;;;;;;;;;;;;;17.01;49.01;99846.66;5082440;28;19917;-68
2022/09/20 06:07:58;;;;;;;;;;;;;;;17.35;48.39;99843.03;5099767;28;19919;-68
2022/09/20 06:10:32;;;;;;;;;;;;;;;17.58;47.40;99845.31;5099411;28;20238;-68
2022/09/20 06:13:03;;;;;;;;;;;;;;;17.73;47.10;99840.66;5099614;28;19918;-68
2022/09/20 06:15:51;;;;;;;;;;;;;;;17.07;47.65;99850.38;5100518;28;20197;-68
2022/09/20 06:18:24;;;;;;;;;;;;;;;16.87;48.59;99852.97;5053669;28;19908;-68
2022/09/20 06:20:50;;;;;;;;;;;;;;;16.99;48.45;99846.03;5099894;28;19916;-68
2022/09/20 06:23:15;;;;;;;;;;;;;;;16.87;48.53;99850.31;5099316;28;19927;-68
2022/09/20 06:25:44;;;;;;;;;;;;;;;16.82;48.74;99844.72;5099038;28;19993;-68
2022/09/20 06:28:15;;;;;;;;;;;;;;;16.88;49.31;99859.97;5099526;28;19920;-68
2022/09/20 06:30:47;;;;;;;;;;;;;;;17.13;48.77;99862.94;5098842;28;19964;-68
2022/09/20 06:33:17;;;;;;;;;;;;;;;17.00;47.53;99860.22;5099537;28;19919;-68
2022/09/20 06:35:48;;;;;;;;;;;;;;;16.87;48.53;99867.16;5099604;28;19922;-68
2022/09/20 06:41:26;;;;;;;;;;;;;;;17.10;48.12;99861.50;5099363;28;20224;-68
2022/09/20 06:43:52;;;;;;;;;;;;;;;17.15;47.34;99863.56;5099473;28;19916;-68
2022/09/20 06:46:18;;;;;;;;;;;;;;;17.23;46.38;99874.91;5081247;28;19931;-68
2022/09/20 06:48:43;;;;;;;;;;;;;;;17.17;46.37;99875.72;5098434;28;19961;-68
2022/09/20 06:51:09;;;;;;;;;;;;;;;17.14;46.66;99881.47;5102507;28;19924;-68
2022/09/20 06:53:36;;;;;;;;;;;;;;;16.95;46.94;99876.03;5101994;28;20173;-68
2022/09/20 06:56:01;;;;;;;;;;;;;;;16.99;47.33;99877.28;5102375;28;19922;-68
2022/09/20 06:58:27;;;;;;;;;;;;;;;17.21;47.46;99874.28;5084675;28;19912;-68
2022/09/20 07:00:52;;;;;;;;;;;;;;;17.55;46.45;99872.50;5101795;28;19927;-68
2022/09/20 07:03:18;;;;;;;;;;;;;;;17.86;44.26;99875.47;5102132;28;19912;-68
2022/09/20 07:05:44;;;;;;;;;;;;;;;18.17;42.86;99876.69;5083453;28;20140;-69
2022/09/20 07:08:09;;;;;;;;;;;;;;;18.40;42.51;99865.50;5102190;28;20141;-69
2022/09/20 07:10:34;;;;;;;;;;;;;;;18.56;41.48;99877.63;5083697;28;19916;-69
2022/09/20 07:13:00;;;;;;;;;;;;;;;18.68;41.52;99882.16;5102548;28;19920;-66
2022/09/20 07:15:27;;;;;;;;;;;;;;;18.88;40.60;99882.13;5101449;28;19923;-69
2022/09/20 07:17:52;;;;;;;;;;;;;;;19.08;40.71;99882.88;5102268;28;19987;-69
2022/09/20 07:20:19;;;;;;;;;;;;;;;19.51;40.44;99887.56;5101389;28;19996;-69
2022/09/20 07:22:44;;;;;;;;;;;;;;;19.48;39.12;99881.81;5101621;28;19912;-69
2022/09/20 07:25:09;;;;;;;;;;;;;;;19.43;38.89;99887.84;5101991;28;19916;-69
2022/09/20 07:27:35;;;;;;;;;;;;;;;19.68;39.27;99879.84;5101659;28;19920;-69
2022/09/20 07:30:01;;;;;;;;;;;;;;;20.32;38.33;99884.09;5102271;28;20193;-67
2022/09/20 07:32:26;;;;;;;;;;;;;;;20.16;37.44;99890.03;5101041;28;19912;-67
2022/09/20 07:34:51;;;;;;;;;;;;;;;20.06;37.61;99894.03;5101239;28;19958;-69
2022/09/20 07:37:18;;;;;;;;;;;;;;;20.10;37.41;99891.72;5101193;28;19912;-69
2022/09/20 07:39:44;;;;;;;;;;;;;;;20.45;36.99;99900.13;5101328;28;19943;-67
2022/09/20 07:42:09;;;;;;;;;;;;;;;20.33;36.70;99896.47;5101499;28;19920;-66
2022/09/20 07:44:35;;;;;;;;;;;;;;;20.19;36.32;99892.28;5102291;28;20303;-67
2022/09/20 07:47:00;;;;;;;;;;;;;;;20.13;36.95;99891.28;5100871;28;19923;-66
2022/09/20 07:49:29;;;;;;;;;;;;;;;20.30;36.54;99884.31;5086226;28;20247;-67
2022/09/20 07:51:54;;;;;;;;;;;;;;;20.23;36.77;99885.41;5101031;28;20181;-67
2022/09/20 07:54:20;;;;;;;;;;;;;;;20.30;36.82;99876.22;5099574;28;19984;-68
2022/09/20 07:56:46;;;;;;;;;;;;;;;19.96;37.17;99879.44;5102388;28;19939;-67
2022/09/20 07:59:12;;;;;;;;;;;;;;;20.21;37.44;99872.19;5104389;28;19919;-67
2022/09/20 08:01:38;;;;;;;;;;;;;;;20.23;37.57;99874.66;5103780;28;19951;-68
2022/09/20 08:04:04;;;;;;;;;;;;;;;20.18;36.85;99871.81;5103975;28;19912;-67
2022/09/20 08:06:29;;;;;;;;;;;;;;;20.22;37.41;99878.38;5103409;28;19922;-68
2022/09/20 08:08:55;;;;;;;;;;;;;;;20.17;37.88;99870.16;5104203;28;19924;-68
2022/09/20 08:11:24;;;;;;;;;;;;;;;20.16;36.75;99861.28;5103822;28;19916;-68
2022/09/20 08:13:50;;;;;;;;;;;;;;;20.48;36.54;99862.00;5104384;28;19920;-68
2022/09/20 08:16:16;;;;;;;;;;;;;;;20.61;36.81;99858.34;5104265;28;19916;-68
2022/09/20 08:18:49;;;;;;;;;;;;;;;20.96;35.54;99848.63;5103732;28;19939;-67
2022/09/20 08:21:15;;;;;;;;;;;;;;;20.76;35.94;99852.59;5103752;28;19931;-68
2022/09/20 08:23:41;;;;;;;;;;;;;;;20.77;36.19;99848.84;5104093;28;19915;-68
2022/09/20 08:26:08;;;;;;;;;;;;;;;20.99;36.21;99847.34;5103490;28;19978;-68
2022/09/20 08:28:34;;;;;;;;;;;;;;;21.12;35.76;99855.25;5103963;28;19977;-68
2022/09/20 08:31:12;;;;;;;;;;;;;;;21.17;35.12;99844.63;5103804;28;20555;-68
2022/09/20 08:33:38;;;;;;;;;;;;;;;21.27;35.47;99847.63;5103376;28;19978;-68
2022/09/20 08:36:04;;;;;;;;;;;;;;;21.34;35.47;99842.13;5103112;28;20016;-68
2022/09/20 08:38:33;;;;;;;;;;;;;;;21.30;35.05;99824.78;5103804;28;19912;-67
2022/09/20 08:41:04;;;;;;;;;;;;;;;21.33;35.04;99835.09;5103250;28;19994;-68
2022/09/20 08:43:34;;;;;;;;;;;;;;;21.48;34.60;99822.03;5103660;28;20121;-68
2022/09/20 08:46:01;;;;;;;;;;;;;;;21.47;34.72;99823.06;5103499;28;19920;-68
2022/09/20 08:48:31;;;;;;;;;;;;;;;21.49;34.13;99820.16;5103010;28;19945;-68
2022/09/20 08:50:56;;;;;;;;;;;;;;;21.45;33.78;99817.09;5103416;28;19979;-68
2022/09/20 08:53:21;;;;;;;;;;;;;;;21.62;33.12;99815.38;5103310;28;19935;-68
2022/09/20 08:55:47;;;;;;;;;;;;;;;21.68;31.96;99813.63;5102966;28;20208;-67
2022/09/20 08:58:13;;;;;;;;;;;;;;;21.67;31.89;99817.38;5103539;28;19912;-67
2022/09/20 09:00:39;;;;;;;;;;;;;;;21.53;32.95;99816.75;5103321;28;19930;-67
2022/09/20 09:03:06;;;;;;;;;;;;;;;21.59;31.74;99815.00;5102691;28;19916;-67
2022/09/20 09:05:42;;;;;;;;;;;;;;;21.66;30.86;99811.16;5102418;28;20261;-67
2022/09/20 09:08:15;;;;;;;;;;;;;;;21.71;31.31;99809.63;5103070;28;19982;-67
2022/09/20 09:10:41;;;;;;;;;;;;;;;21.83;31.55;99813.16;5102933;28;19975;-67
2022/09/20 09:13:06;;;;;;;;;;;;;;;21.82;31.97;99808.81;5103347;28;20285;-68
2022/09/20 09:15:34;;;;;;;;;;;;;;;21.76;31.61;99807.88;5102830;28;19916;-67
2022/09/20 09:17:59;;;;;;;;;;;;;;;21.96;31.69;99808.38;5102796;28;19920;-67
2022/09/20 09:20:25;;;;;;;;;;;;;;;22.01;30.64;99805.00;5084585;28;19987;-68
2022/09/20 09:23:01;;;;;;;;;;;;;;;22.14;31.23;99795.88;5102822;28;19919;-67
2022/09/20 09:25:36;;;;;;;;;;;;;;;22.16;31.29;99796.44;5102438;28;19928;-67
2022/09/20 09:28:04;;;;;;;;;;;;;;;22.10;31.97;99798.22;5102702;28;19923;-67
2022/09/20 09:30:37;;;;;;;;;;;;;;;22.13;31.52;99788.84;5102412;28;19923;-67
2022/09/20 09:33:25;;;;;;;;;;;;;;;21.89;31.33;99788.81;5102181;28;19911;-67
2022/09/20 09:36:12;;;;;;;;;;;;;;;21.63;32.33;99787.38;5102056;28;19916;-67
2022/09/20 09:38:38;;;;;;;;;;;;;;;21.56;32.70;99785.84;5089055;28;19920;-67
2022/09/20 09:41:34;;;;;;;;;;;;;;;21.46;32.82;99790.97;5102197;28;19916;-67
2022/09/20 09:44:01;;;;;;;;;;;;;;;21.40;32.93;99781.13;5085808;28;20071;-67
2022/09/20 09:46:30;;;;;;;;;;;;;;;21.32;33.10;99776.91;5102665;28;19916;-67
2022/09/20 09:49:07;;;;;;;;;;;;;;;21.63;32.57;99781.97;5101848;28;19918;-67
2022/09/20 09:51:33;;;;;;;;;;;;;;;21.81;32.55;99783.75;5101154;28;20079;-67
2022/09/20 09:53:59;;;;;;;;;;;;;;;21.97;32.27;99772.28;5102363;28;19911;-68
2022/09/20 09:56:36;;;;;;;;;;;;;;;22.01;31.73;99771.81;5101773;28;19978;-67
2022/09/20 09:59:31;;;;;;;;;;;;;;;22.14;31.78;99777.00;5102153;28;19919;-67
2022/09/20 10:02:12;;;;;;;;;;;;;;;21.85;30.97;99773.34;5093040;28;19987;-67
2022/09/20 10:04:38;;;;;;;;;;;;;;;22.01;31.45;99767.25;5101020;28;19918;-67
2022/09/20 10:07:21;;;;;;;;;;;;;;;22.22;31.63;99765.84;5101288;28;19916;-67
2022/09/20 10:10:10;;;;;;;;;;;;;;;22.25;30.58;99766.19;5102039;28;19911;-68
2022/09/20 10:12:47;;;;;;;;;;;;;;;22.32;29.66;99771.44;5072282;28;19912;-67
2022/09/20 10:15:13;;;;;;;;;;;;;;;22.21;30.25;99767.72;5101949;28;19916;-67
2022/09/20 10:17:49;;;;;;;;;;;;;;;22.29;29.55;99769.22;5101365;28;19920;-67
2022/09/20 10:20:36;;;;;;;;;;;;;;;22.20;29.90;99771.47;5101231;28;19924;-67
2022/09/20 10:23:01;;;;;;;;;;;;;;;22.22;30.33;99763.97;5102080;28;19978;-67
2022/09/20 10:25:47;;;;;;;;;;;;;;;22.24;31.71;99763.72;5101131;28;20194;-67
2022/09/20 10:28:24;;;;;;;;;;;;;;;22.37;31.15;99762.63;5102186;28;19919;-67
2022/09/20 10:30:57;;;;;;;;;;;;;;;22.29;31.04;99763.84;5101826;28;19916;-67
2022/09/20 10:33:29;;;;;;;;;;;;;;;22.33;31.05;99758.78;5101398;28;19911;-67
2022/09/20 10:35:57;;;;;;;;;;;;;;;22.36;31.02;99744.81;5101253;28;19920;-67
2022/09/20 10:38:32;;;;;;;;;;;;;;;22.34;31.36;99746.94;5101754;28;19911;-67
2022/09/20 10:44:08;;;;;;;;;;;;;;;22.36;31.05;99744.81;5101833;28;19949;-68
2022/09/20 10:46:44;;;;;;;;;;;;;;;22.43;31.34;99735.53;5101679;28;19920;-68
2022/09/20 10:49:22;;;;;;;;;;;;;;;22.38;32.26;99740.00;5100867;28;19912;-68
2022/09/20 10:52:26;;;;;;;;;;;;;;;22.24;31.45;99742.16;5101673;28;19996;-67
2022/09/20 10:55:10;;;;;;;;;;;;;;;22.23;31.19;99741.31;5018048;28;19920;-67
2022/09/20 10:57:36;;;;;;;;;;;;;;;22.34;31.93;99728.06;5018993;28;19917;-68
2022/09/20 11:00:18;;;;;;;;;;;;;;;22.20;31.42;99725.63;5066371;28;19954;-68
2022/09/20 11:02:59;;;;;;;;;;;;;;;22.11;31.73;99727.06;5101250;28;20229;-68
2022/09/20 11:05:49;;;;;;;;;;;;;;;21.80;30.81;99725.50;5081868;28;19922;-68
2022/09/20 11:08:17;;;;;;;;;;;;;;;21.88;31.62;99732.44;5101385;28;19931;-67
2022/09/20 11:10:43;;;;;;;;;;;;;;;21.85;31.32;99717.56;5100874;28;19916;-67
2022/09/20 11:13:28;;;;;;;;;;;;;;;21.89;31.14;99724.13;5101210;28;19912;-68
2022/09/20 11:15:59;;;;;;;;;;;;;;;21.82;29.98;99720.69;5101491;28;19916;-67
2022/09/20 11:18:49;;;;;;;;;;;;;;;21.82;30.41;99714.50;5101001;28;19916;-68
2022/09/20 11:21:16;;;;;;;;;;;;;;;21.97;29.91;99701.38;5089798;28;19965;-67
2022/09/20 11:23:50;;;;;;;;;;;;;;;21.93;30.48;99703.72;5101199;28;19920;-67
2022/09/20 11:26:21;;;;;;;;;;;;;;;21.87;29.01;99707.38;5100957;28;19923;-68
2022/09/20 11:28:52;;;;;;;;;;;;;;;21.81;30.02;99702.88;5101299;28;20004;-68
2022/09/20 11:31:34;;;;;;;;;;;;;;;21.83;29.80;99699.97;5101140;28;19955;-67
2022/09/20 11:34:20;;;;;;;;;;;;;;;21.88;30.92;99686.63;5100654;28;19919;-68
2022/09/20 11:36:56;;;;;;;;;;;;;;;22.08;29.70;99680.88;5101745;28;19920;-67
2022/09/20 11:39:27;;;;;;;;;;;;;;;21.98;29.23;99686.84;5104719;28;20228;-67
2022/09/20 11:41:54;;;;;;;;;;;;;;;21.95;29.31;99690.00;5105005;28;20205;-68
2022/09/20 11:44:20;;;;;;;;;;;;;;;21.94;28.92;99675.72;5104788;28;19942;-68
2022/09/20 11:46:46;;;;;;;;;;;;;;;22.03;28.63;99675.38;5104819;28;19916;-68
2022/09/20 11:49:30;;;;;;;;;;;;;;;22.03;28.74;99673.50;5104534;28;20224;-67
2022/09/20 11:52:13;;;;;;;;;;;;;;;21.93;29.38;99665.97;5086205;28;19916;-67
2022/09/20 11:54:57;;;;;;;;;;;;;;;21.90;28.80;99650.28;5104497;28;20112;-67
2022/09/20 11:57:23;;;;;;;;;;;;;;;21.95;29.40;99654.97;5086306;28;20228;-67
2022/09/20 11:59:53;;;;;;;;;;;;;;;22.09;29.28;99658.22;5104479;28;19912;-67
2022/09/20 12:02:30;;;;;;;;;;;;;;;22.07;28.85;99650.38;5104236;28;19912;-67
2022/09/20 12:04:56;;;;;;;;;;;;;;;21.82;28.99;99647.09;5103686;28;19920;-67
2022/09/20 12:07:23;;;;;;;;;;;;;;;22.01;29.14;99645.09;5103967;28;19983;-67
2022/09/20 12:09:59;;;;;;;;;;;;;;;21.96;28.94;99646.63;5104098;28;20117;-67
2022/09/20 12:12:42;;;;;;;;;;;;;;;21.93;28.29;99657.06;5104188;28;19912;-68
2022/09/20 12:15:20;;;;;;;;;;;;;;;21.75;27.78;99660.72;5104012;28;19989;-68
2022/09/20 12:17:45;;;;;;;;;;;;;;;21.84;27.80;99663.84;5104096;28;19923;-68
2022/09/20 12:20:29;;;;;;;;;;;;;;;21.50;27.32;99655.59;5103893;28;19924;-68
2022/09/20 12:23:15;;;;;;;;;;;;;;;21.45;28.04;99662.72;5104182;28;19947;-68
2022/09/20 12:25:59;;;;;;;;;;;;;;;21.45;28.30;99658.16;5103855;28;19923;-68
2022/09/20 12:28:32;;;;;;;;;;;;;;;21.46;27.79;99667.06;5103026;28;19990;-68
2022/09/20 12:31:16;;;;;;;;;;;;;;;21.38;28.02;99667.41;5100165;28;19916;-68
2022/09/20 12:33:54;;;;;;;;;;;;;;;21.51;29.42;99665.31;5099109;28;19912;-68
2022/09/20 12:36:19;;;;;;;;;;;;;;;21.56;29.48;99668.13;5099241;28;19961;-68
2022/09/20 12:38:47;;;;;;;;;;;;;;;21.62;29.06;99661.78;5099691;28;19986;-68
2022/09/20 12:41:16;;;;;;;;;;;;;;;21.71;28.48;99645.25;5099317;28;20232;-68
2022/09/20 12:43:53;;;;;;;;;;;;;;;21.72;28.88;99660.38;5099870;28;20149;-68
2022/09/20 12:46:20;;;;;;;;;;;;;;;21.87;28.09;99650.75;5099436;28;20205;-68
2022/09/20 12:48:46;;;;;;;;;;;;;;;21.76;28.76;99648.88;5099668;28;20253;-68
2022/09/20 12:53:59;;;;;;;;;;;;;;;21.68;27.83;99652.75;5097990;28;20034;-68
2022/09/20 12:56:26;;;;;;;;;;;;;;;21.68;28.19;99641.97;5099813;28;19924;-68
2022/09/20 12:58:53;;;;;;;;;;;;;;;21.80;28.25;99649.22;5099167;28;19950;-68
2022/09/20 13:01:19;;;;;;;;;;;;;;;21.70;27.85;99652.50;5099519;28;19912;-68
2022/09/20 13:03:47;;;;;;;;;;;;;;;21.61;28.29;99649.38;5099918;28;19926;-68
2022/09/20 13:06:13;;;;;;;;;;;;;;;21.60;27.82;99647.72;5098348;28;19920;-68
2022/09/20 13:08:41;;;;;;;;;;;;;;;21.52;27.52;99641.88;5100037;28;20193;-68
2022/09/20 13:11:13;;;;;;;;;;;;;;;21.52;27.89;99644.56;5099463;28;19966;-67
2022/09/20 13:13:38;;;;;;;;;;;;;;;21.53;27.57;99635.44;5098903;28;20109;-68
2022/09/20 13:16:05;;;;;;;;;;;;;;;21.45;28.39;99643.88;5099544;28;19930;-68
2022/09/20 13:18:30;;;;;;;;;;;;;;;21.32;28.42;99653.84;5098315;28;19988;-68
2022/09/20 13:20:56;;;;;;;;;;;;;;;21.40;28.09;99641.88;5098543;28;19916;-68
2022/09/20 13:23:26;;;;;;;;;;;;;;;21.43;28.45;99643.28;5099945;28;19992;-68
2022/09/20 13:25:54;;;;;;;;;;;;;;;21.30;28.11;99639.78;5098718;28;20235;-68
2022/09/20 13:28:20;;;;;;;;;;;;;;;21.56;28.72;99646.56;5098394;28;20012;-67
2022/09/20 13:30:45;;;;;;;;;;;;;;;21.65;28.74;99647.84;5098359;28;20209;-68